首页
METAR-TAF:

METAR-TAF

机场 :

諾福克國際機場

諾福克, 弗吉尼亚州, 美国

纬度: 36-54-13N, 经度: 076-11-31W, 海拔: 8米

当前天气观测

该预报发布于42分钟前的18:51 UTC
风速10节,风向西,有时为18节阵风
温度 31°C
湿度 49%
气压 1020 hPa
能見度: 16.1公里
少量云层高于4100英尺

METAR: KORF 231851Z 26010G18KT 10SM FEW041 31/19 A3011 RMK AO2 SLP197 T03060189

时间: 15:33 (19:33 UTC)

预报

该预报发布于1小时和55分钟前的17:38 UTC
预报有效从23日的 18点(UTC)到 24日的 18点(UTC)
风速12节,风向西南,有时为20节阵风
能見度: 10公里
散云层高于25000英尺
从 23日的 2300点(UTC)
风速11节,风向西南
能見度: 10公里
散云层高于7000英尺
多云层高于25000英尺
从 24日的 0500点(UTC)
风速5节,风向多变
能見度: 10公里
天空无云

TAF: KORF 231738Z 2318/2418 22012G20KT P6SM SCT250 FM232300 22011KT P6SM SCT070 BKN250 FM240500 VRB05KT P6SM SKC

超过4000个机场的气象观测和天气预报(METAR&TAF报告)。

可查询的气象台以黄色和红色小点在地图上表示。

将鼠标移到小点上方,可查看气象台名称。

然后点击查看天气观测和预报。

如需切换地图:点击带黑十字的绿色按钮放大地图;点击带横线的绿色按钮缩小地图;或者点击绿色箭头查看邻近地区的地图。


METAR-TAF: